Terminal Aerodrome Forecast
Issued by NWS

Home | Current Version | Previous Version | Text Only | Print | Product List | Glossary On
Versions: 1 2 3 4 5 6 7 8 9 10 11 12 13 14 15 16 17 18 19 20 21 22 23 24 25 26 27 28 29 30 31 32 33 34 35 36 37 38 39 40
942
FTUS43 KEAX 212320
TAFMKC
TAF
KMKC 212320Z 2200/2224 18011KT P6SM VCSH FEW015 OVC040
     FM220700 18011KT P6SM -TSRA SCT020 OVC035CB
      TEMPO 2207/2209 VRB15G30KT 1SM +TSRA OVC015CB
     FM221200 19011KT P6SM -SHRA VCTS OVC035CB
     FM221700 23009KT P6SM VCSH OVC015
     FM222200 32009KT P6SM SCT045=

USA.gov is the U.S. government's official web portal to all federal, state and local government web resources and services.